sensor_id;sensor_type;location;lat;lon;timestamp;P1;durP1;ratioP1;P2;durP2;ratioP2
17949;SDS011;9100;48.700;9.316;2023-05-27T00:00:04;16.5;;;4.1;;
17949;SDS011;9100;48.700;9.316;2023-05-27T00:01:03;16.5;;;4.1;;
17949;SDS011;9100;48.700;9.316;2023-05-27T00:02:03;16.5;;;4.1;;
17949;SDS011;9100;48.700;9.316;2023-05-27T00:03:03;16.5;;;4.1;;
17949;SDS011;9100;48.700;9.316;2023-05-27T00:04:03;16.5;;;4.1;;
17949;SDS011;9100;48.700;9.316;2023-05-27T00:04:56;6.3;;;3.1;;
17949;SDS011;9100;48.700;9.316;2023-05-27T00:05:03;6.3;;;3.1;;
17949;SDS011;9100;48.700;9.316;2023-05-27T00:06:03;6.3;;;3.1;;
17949;SDS011;9100;48.700;9.316;2023-05-27T00:07:04;6.3;;;3.1;;
17949;SDS011;9100;48.700;9.316;2023-05-27T00:08:03;6.3;;;3.1;;
17949;SDS011;9100;48.700;9.316;2023-05-27T00:09:03;6.3;;;3.1;;
17949;SDS011;9100;48.700;9.316;2023-05-27T00:09:56;4.7;;;3.1;;
17949;SDS011;9100;48.700;9.316;2023-05-27T00:10:03;4.7;;;3.1;;
17949;SDS011;9100;48.700;9.316;2023-05-27T00:11:03;4.7;;;3.1;;
17949;SDS011;9100;48.700;9.316;2023-05-27T00:12:03;4.7;;;3.1;;
17949;SDS011;9100;48.700;9.316;2023-05-27T00:13:03;4.7;;;3.1;;
17949;SDS011;9100;48.700;9.316;2023-05-27T00:14:03;4.7;;;3.1;;
17949;SDS011;9100;48.700;9.316;2023-05-27T00:14:56;13.5;;;3.7;;
17949;SDS011;9100;48.700;9.316;2023-05-27T00:15:03;13.5;;;3.7;;
17949;SDS011;9100;48.700;9.316;2023-05-27T00:16:03;13.5;;;3.7;;
17949;SDS011;9100;48.700;9.316;2023-05-27T00:17:03;13.5;;;3.7;;
17949;SDS011;9100;48.700;9.316;2023-05-27T00:18:03;13.5;;;3.7;;
17949;SDS011;9100;48.700;9.316;2023-05-27T00:19:03;13.5;;;3.7;;
17949;SDS011;9100;48.700;9.316;2023-05-27T00:19:56;5.4;;;3.5;;
17949;SDS011;9100;48.700;9.316;2023-05-27T00:20:03;5.4;;;3.5;;
17949;SDS011;9100;48.700;9.316;2023-05-27T00:21:03;5.4;;;3.5;;
17949;SDS011;9100;48.700;9.316;2023-05-27T00:22:03;5.4;;;3.5;;
17949;SDS011;9100;48.700;9.316;2023-05-27T00:23:03;5.4;;;3.5;;
17949;SDS011;9100;48.700;9.316;2023-05-27T00:24:03;5.4;;;3.5;;
17949;SDS011;9100;48.700;9.316;2023-05-27T00:24:56;10.1;;;3.7;;
17949;SDS011;9100;48.700;9.316;2023-05-27T00:25:03;10.1;;;3.7;;
17949;SDS011;9100;48.700;9.316;2023-05-27T00:26:03;10.1;;;3.7;;
17949;SDS011;9100;48.700;9.316;2023-05-27T00:27:03;10.1;;;3.7;;
17949;SDS011;9100;48.700;9.316;2023-05-27T00:28:03;10.1;;;3.7;;
17949;SDS011;9100;48.700;9.316;2023-05-27T00:29:03;10.1;;;3.7;;
17949;SDS011;9100;48.700;9.316;2023-05-27T00:29:56;9.2;;;3.3;;
17949;SDS011;9100;48.700;9.316;2023-05-27T00:30:03;9.2;;;3.3;;
17949;SDS011;9100;48.700;9.316;2023-05-27T00:31:03;9.2;;;3.3;;
17949;SDS011;9100;48.700;9.316;2023-05-27T00:32:03;9.2;;;3.3;;
17949;SDS011;9100;48.700;9.316;2023-05-27T00:33:03;9.2;;;3.3;;
17949;SDS011;9100;48.700;9.316;2023-05-27T00:34:03;9.2;;;3.3;;
17949;SDS011;9100;48.700;9.316;2023-05-27T00:34:56;4.7;;;3.6;;
17949;SDS011;9100;48.700;9.316;2023-05-27T00:35:03;4.7;;;3.6;;
17949;SDS011;9100;48.700;9.316;2023-05-27T00:36:03;4.7;;;3.6;;
17949;SDS011;9100;48.700;9.316;2023-05-27T00:37:04;4.7;;;3.6;;
17949;SDS011;9100;48.700;9.316;2023-05-27T00:38:03;4.7;;;3.6;;
17949;SDS011;9100;48.700;9.316;2023-05-27T00:39:03;4.7;;;3.6;;
17949;SDS011;9100;48.700;9.316;2023-05-27T00:39:56;5.2;;;3.5;;
17949;SDS011;9100;48.700;9.316;2023-05-27T00:40:03;5.2;;;3.5;;
17949;SDS011;9100;48.700;9.316;2023-05-27T00:41:03;5.2;;;3.5;;
17949;SDS011;9100;48.700;9.316;2023-05-27T00:42:03;5.2;;;3.5;;
17949;SDS011;9100;48.700;9.316;2023-05-27T00:43:03;5.2;;;3.5;;
17949;SDS011;9100;48.700;9.316;2023-05-27T00:44:03;5.2;;;3.5;;
17949;SDS011;9100;48.700;9.316;2023-05-27T00:44:56;8.4;;;3.7;;
17949;SDS011;9100;48.700;9.316;2023-05-27T00:45:03;8.4;;;3.7;;
17949;SDS011;9100;48.700;9.316;2023-05-27T00:46:03;8.4;;;3.7;;
17949;SDS011;9100;48.700;9.316;2023-05-27T00:47:03;8.4;;;3.7;;
17949;SDS011;9100;48.700;9.316;2023-05-27T00:48:03;8.4;;;3.7;;
17949;SDS011;9100;48.700;9.316;2023-05-27T00:49:03;8.4;;;3.7;;
17949;SDS011;9100;48.700;9.316;2023-05-27T00:49:56;10.5;;;3.7;;
17949;SDS011;9100;48.700;9.316;2023-05-27T00:50:03;10.5;;;3.7;;
17949;SDS011;9100;48.700;9.316;2023-05-27T00:51:03;10.5;;;3.7;;
17949;SDS011;9100;48.700;9.316;2023-05-27T00:52:03;10.5;;;3.7;;
17949;SDS011;9100;48.700;9.316;2023-05-27T00:53:03;10.5;;;3.7;;
17949;SDS011;9100;48.700;9.316;2023-05-27T00:54:03;10.5;;;3.7;;
17949;SDS011;9100;48.700;9.316;2023-05-27T00:54:56;7.1;;;4.1;;
17949;SDS011;9100;48.700;9.316;2023-05-27T00:55:03;7.1;;;4.1;;
17949;SDS011;9100;48.700;9.316;2023-05-27T00:56:03;7.1;;;4.1;;
17949;SDS011;9100;48.700;9.316;2023-05-27T00:57:03;7.1;;;4.1;;
17949;SDS011;9100;48.700;9.316;2023-05-27T00:58:03;7.1;;;4.1;;
17949;SDS011;9100;48.700;9.316;2023-05-27T00:59:03;7.1;;;4.1;;
17949;SDS011;9100;48.700;9.316;2023-05-27T00:59:56;13;;;3.8;;
17949;SDS011;9100;48.700;9.316;2023-05-27T01:00:03;13;;;3.8;;
17949;SDS011;9100;48.700;9.316;2023-05-27T01:01:04;13;;;3.8;;
17949;SDS011;9100;48.700;9.316;2023-05-27T01:02:03;13;;;3.8;;
17949;SDS011;9100;48.700;9.316;2023-05-27T01:03:03;13;;;3.8;;
17949;SDS011;9100;48.700;9.316;2023-05-27T01:04:03;13;;;3.8;;
17949;SDS011;9100;48.700;9.316;2023-05-27T01:04:56;7.7;;;3.6;;
17949;SDS011;9100;48.700;9.316;2023-05-27T01:05:03;7.7;;;3.6;;
17949;SDS011;9100;48.700;9.316;2023-05-27T01:06:05;7.7;;;3.6;;
17949;SDS011;9100;48.700;9.316;2023-05-27T01:07:03;7.7;;;3.6;;
17949;SDS011;9100;48.700;9.316;2023-05-27T01:08:05;7.7;;;3.6;;
17949;SDS011;9100;48.700;9.316;2023-05-27T01:09:09;7.7;;;3.6;;
17949;SDS011;9100;48.700;9.316;2023-05-27T01:09:58;7.9;;;3.6;;
17949;SDS011;9100;48.700;9.316;2023-05-27T01:10:05;7.9;;;3.6;;
17949;SDS011;9100;48.700;9.316;2023-05-27T01:11:03;7.9;;;3.6;;
17949;SDS011;9100;48.700;9.316;2023-05-27T01:12:04;7.9;;;3.6;;
17949;SDS011;9100;48.700;9.316;2023-05-27T01:13:06;7.9;;;3.6;;
17949;SDS011;9100;48.700;9.316;2023-05-27T01:14:05;7.9;;;3.6;;
17949;SDS011;9100;48.700;9.316;2023-05-27T01:14:56;5.9;;;3.3;;
17949;SDS011;9100;48.700;9.316;2023-05-27T01:15:03;5.9;;;3.3;;
17949;SDS011;9100;48.700;9.316;2023-05-27T01:16:06;5.9;;;3.3;;
17949;SDS011;9100;48.700;9.316;2023-05-27T01:17:03;5.9;;;3.3;;
17949;SDS011;9100;48.700;9.316;2023-05-27T01:18:03;5.9;;;3.3;;
17949;SDS011;9100;48.700;9.316;2023-05-27T01:19:03;5.9;;;3.3;;
17949;SDS011;9100;48.700;9.316;2023-05-27T01:19:56;6;;;3.2;;
17949;SDS011;9100;48.700;9.316;2023-05-27T01:20:03;6;;;3.2;;
17949;SDS011;9100;48.700;9.316;2023-05-27T01:21:05;6;;;3.2;;
17949;SDS011;9100;48.700;9.316;2023-05-27T01:22:03;6;;;3.2;;
17949;SDS011;9100;48.700;9.316;2023-05-27T01:23:03;6;;;3.2;;
17949;SDS011;9100;48.700;9.316;2023-05-27T01:24:03;6;;;3.2;;
17949;SDS011;9100;48.700;9.316;2023-05-27T01:24:56;18.6;;;3.4;;
17949;SDS011;9100;48.700;9.316;2023-05-27T01:25:03;18.6;;;3.4;;
17949;SDS011;9100;48.700;9.316;2023-05-27T01:26:03;18.6;;;3.4;;
17949;SDS011;9100;48.700;9.316;2023-05-27T01:27:03;18.6;;;3.4;;
17949;SDS011;9100;48.700;9.316;2023-05-27T01:28:03;18.6;;;3.4;;
17949;SDS011;9100;48.700;9.316;2023-05-27T01:29:03;18.6;;;3.4;;
17949;SDS011;9100;48.700;9.316;2023-05-27T01:29:56;8;;;4;;
17949;SDS011;9100;48.700;9.316;2023-05-27T01:30:03;8;;;4;;
17949;SDS011;9100;48.700;9.316;2023-05-27T01:31:06;8;;;4;;
17949;SDS011;9100;48.700;9.316;2023-05-27T01:32:04;8;;;4;;
17949;SDS011;9100;48.700;9.316;2023-05-27T01:33:04;8;;;4;;
17949;SDS011;9100;48.700;9.316;2023-05-27T01:34:05;8;;;4;;
17949;SDS011;9100;48.700;9.316;2023-05-27T01:34:57;8;;;3.3;;
17949;SDS011;9100;48.700;9.316;2023-05-27T01:35:04;8;;;3.3;;
17949;SDS011;9100;48.700;9.316;2023-05-27T01:36:04;8;;;3.3;;
17949;SDS011;9100;48.700;9.316;2023-05-27T01:37:04;8;;;3.3;;
17949;SDS011;9100;48.700;9.316;2023-05-27T01:38:04;8;;;3.3;;
17949;SDS011;9100;48.700;9.316;2023-05-27T01:39:03;8;;;3.3;;
17949;SDS011;9100;48.700;9.316;2023-05-27T01:39:56;9.6;;;3.6;;
17949;SDS011;9100;48.700;9.316;2023-05-27T01:40:03;9.6;;;3.6;;
17949;SDS011;9100;48.700;9.316;2023-05-27T01:41:03;9.6;;;3.6;;
17949;SDS011;9100;48.700;9.316;2023-05-27T01:42:03;9.6;;;3.6;;
17949;SDS011;9100;48.700;9.316;2023-05-27T01:43:03;9.6;;;3.6;;
17949;SDS011;9100;48.700;9.316;2023-05-27T01:44:03;9.6;;;3.6;;
17949;SDS011;9100;48.700;9.316;2023-05-27T01:44:56;4.4;;;3.6;;
17949;SDS011;9100;48.700;9.316;2023-05-27T01:45:03;4.4;;;3.6;;
17949;SDS011;9100;48.700;9.316;2023-05-27T01:46:03;4.4;;;3.6;;
17949;SDS011;9100;48.700;9.316;2023-05-27T01:47:03;4.4;;;3.6;;
17949;SDS011;9100;48.700;9.316;2023-05-27T01:48:03;4.4;;;3.6;;
17949;SDS011;9100;48.700;9.316;2023-05-27T01:49:03;4.4;;;3.6;;
17949;SDS011;9100;48.700;9.316;2023-05-27T01:49:56;7.3;;;3.8;;
17949;SDS011;9100;48.700;9.316;2023-05-27T01:50:03;7.3;;;3.8;;
17949;SDS011;9100;48.700;9.316;2023-05-27T01:51:03;7.3;;;3.8;;
17949;SDS011;9100;48.700;9.316;2023-05-27T01:52:03;7.3;;;3.8;;
17949;SDS011;9100;48.700;9.316;2023-05-27T01:53:03;7.3;;;3.8;;
17949;SDS011;9100;48.700;9.316;2023-05-27T01:54:03;7.3;;;3.8;;
17949;SDS011;9100;48.700;9.316;2023-05-27T01:54:56;6.5;;;3.1;;
17949;SDS011;9100;48.700;9.316;2023-05-27T01:55:03;6.5;;;3.1;;
17949;SDS011;9100;48.700;9.316;2023-05-27T01:56:03;6.5;;;3.1;;
17949;SDS011;9100;48.700;9.316;2023-05-27T01:57:03;6.5;;;3.1;;
17949;SDS011;9100;48.700;9.316;2023-05-27T01:58:03;6.5;;;3.1;;
17949;SDS011;9100;48.700;9.316;2023-05-27T01:59:03;6.5;;;3.1;;
17949;SDS011;9100;48.700;9.316;2023-05-27T01:59:56;10;;;3.3;;
17949;SDS011;9100;48.700;9.316;2023-05-27T02:00:03;10;;;3.3;;
17949;SDS011;9100;48.700;9.316;2023-05-27T02:01:03;10;;;3.3;;
17949;SDS011;9100;48.700;9.316;2023-05-27T02:02:04;10;;;3.3;;
17949;SDS011;9100;48.700;9.316;2023-05-27T02:03:03;10;;;3.3;;
17949;SDS011;9100;48.700;9.316;2023-05-27T02:04:03;10;;;3.3;;
17949;SDS011;9100;48.700;9.316;2023-05-27T02:04:56;7.2;;;3.6;;
17949;SDS011;9100;48.700;9.316;2023-05-27T02:05:03;7.2;;;3.6;;
17949;SDS011;9100;48.700;9.316;2023-05-27T02:06:03;7.2;;;3.6;;
17949;SDS011;9100;48.700;9.316;2023-05-27T02:07:03;7.2;;;3.6;;
17949;SDS011;9100;48.700;9.316;2023-05-27T02:08:03;7.2;;;3.6;;
17949;SDS011;9100;48.700;9.316;2023-05-27T02:09:03;7.2;;;3.6;;
17949;SDS011;9100;48.700;9.316;2023-05-27T02:09:56;12.3;;;3.5;;
17949;SDS011;9100;48.700;9.316;2023-05-27T02:10:03;12.3;;;3.5;;
17949;SDS011;9100;48.700;9.316;2023-05-27T02:11:03;12.3;;;3.5;;
17949;SDS011;9100;48.700;9.316;2023-05-27T02:12:03;12.3;;;3.5;;
17949;SDS011;9100;48.700;9.316;2023-05-27T02:13:03;12.3;;;3.5;;
17949;SDS011;9100;48.700;9.316;2023-05-27T02:14:03;12.3;;;3.5;;
17949;SDS011;9100;48.700;9.316;2023-05-27T02:14:56;8.1;;;4;;
17949;SDS011;9100;48.700;9.316;2023-05-27T02:15:04;8.1;;;4;;
17949;SDS011;9100;48.700;9.316;2023-05-27T02:16:03;8.1;;;4;;
17949;SDS011;9100;48.700;9.316;2023-05-27T02:17:03;8.1;;;4;;
17949;SDS011;9100;48.700;9.316;2023-05-27T02:18:03;8.1;;;4;;
17949;SDS011;9100;48.700;9.316;2023-05-27T02:19:03;8.1;;;4;;
17949;SDS011;9100;48.700;9.316;2023-05-27T02:19:56;8.3;;;4.1;;
17949;SDS011;9100;48.700;9.316;2023-05-27T02:20:03;8.3;;;4.1;;
17949;SDS011;9100;48.700;9.316;2023-05-27T02:21:03;8.3;;;4.1;;
17949;SDS011;9100;48.700;9.316;2023-05-27T02:22:03;8.3;;;4.1;;
17949;SDS011;9100;48.700;9.316;2023-05-27T02:23:04;8.3;;;4.1;;
17949;SDS011;9100;48.700;9.316;2023-05-27T02:24:03;8.3;;;4.1;;
17949;SDS011;9100;48.700;9.316;2023-05-27T02:24:56;6.7;;;3.8;;
17949;SDS011;9100;48.700;9.316;2023-05-27T02:25:03;6.7;;;3.8;;
17949;SDS011;9100;48.700;9.316;2023-05-27T02:26:03;6.7;;;3.8;;
17949;SDS011;9100;48.700;9.316;2023-05-27T02:27:03;6.7;;;3.8;;
17949;SDS011;9100;48.700;9.316;2023-05-27T02:28:03;6.7;;;3.8;;
17949;SDS011;9100;48.700;9.316;2023-05-27T02:29:03;6.7;;;3.8;;
17949;SDS011;9100;48.700;9.316;2023-05-27T02:29:56;11.1;;;3.1;;
17949;SDS011;9100;48.700;9.316;2023-05-27T02:30:03;11.1;;;3.1;;
17949;SDS011;9100;48.700;9.316;2023-05-27T02:31:03;11.1;;;3.1;;
17949;SDS011;9100;48.700;9.316;2023-05-27T02:32:03;11.1;;;3.1;;
17949;SDS011;9100;48.700;9.316;2023-05-27T02:33:03;11.1;;;3.1;;
17949;SDS011;9100;48.700;9.316;2023-05-27T02:34:03;11.1;;;3.1;;
17949;SDS011;9100;48.700;9.316;2023-05-27T02:34:56;5.8;;;3.3;;
17949;SDS011;9100;48.700;9.316;2023-05-27T02:35:03;5.8;;;3.3;;
17949;SDS011;9100;48.700;9.316;2023-05-27T02:36:03;5.8;;;3.3;;
17949;SDS011;9100;48.700;9.316;2023-05-27T02:37:03;5.8;;;3.3;;
17949;SDS011;9100;48.700;9.316;2023-05-27T02:38:03;5.8;;;3.3;;
17949;SDS011;9100;48.700;9.316;2023-05-27T02:39:03;5.8;;;3.3;;
17949;SDS011;9100;48.700;9.316;2023-05-27T02:39:56;6.7;;;3.5;;
17949;SDS011;9100;48.700;9.316;2023-05-27T02:40:04;6.7;;;3.5;;
17949;SDS011;9100;48.700;9.316;2023-05-27T02:41:03;6.7;;;3.5;;
17949;SDS011;9100;48.700;9.316;2023-05-27T02:42:03;6.7;;;3.5;;
17949;SDS011;9100;48.700;9.316;2023-05-27T02:43:03;6.7;;;3.5;;
17949;SDS011;9100;48.700;9.316;2023-05-27T02:44:04;6.7;;;3.5;;
17949;SDS011;9100;48.700;9.316;2023-05-27T02:44:56;9.5;;;4.4;;
17949;SDS011;9100;48.700;9.316;2023-05-27T02:45:03;9.5;;;4.4;;
17949;SDS011;9100;48.700;9.316;2023-05-27T02:46:03;9.5;;;4.4;;
17949;SDS011;9100;48.700;9.316;2023-05-27T02:47:03;9.5;;;4.4;;
17949;SDS011;9100;48.700;9.316;2023-05-27T02:48:03;9.5;;;4.4;;
17949;SDS011;9100;48.700;9.316;2023-05-27T02:49:03;9.5;;;4.4;;
17949;SDS011;9100;48.700;9.316;2023-05-27T02:49:56;11.1;;;3.6;;
17949;SDS011;9100;48.700;9.316;2023-05-27T02:50:04;11.1;;;3.6;;
17949;SDS011;9100;48.700;9.316;2023-05-27T02:51:03;11.1;;;3.6;;
17949;SDS011;9100;48.700;9.316;2023-05-27T02:52:03;11.1;;;3.6;;
17949;SDS011;9100;48.700;9.316;2023-05-27T02:53:03;11.1;;;3.6;;
17949;SDS011;9100;48.700;9.316;2023-05-27T02:54:03;11.1;;;3.6;;
17949;SDS011;9100;48.700;9.316;2023-05-27T02:54:56;8.8;;;3.8;;
17949;SDS011;9100;48.700;9.316;2023-05-27T02:55:04;8.8;;;3.8;;
17949;SDS011;9100;48.700;9.316;2023-05-27T02:56:03;8.8;;;3.8;;
17949;SDS011;9100;48.700;9.316;2023-05-27T02:57:03;8.8;;;3.8;;
17949;SDS011;9100;48.700;9.316;2023-05-27T02:58:03;8.8;;;3.8;;
17949;SDS011;9100;48.700;9.316;2023-05-27T02:59:03;8.8;;;3.8;;
17949;SDS011;9100;48.700;9.316;2023-05-27T02:59:56;7.6;;;3.7;;
17949;SDS011;9100;48.700;9.316;2023-05-27T03:00:03;7.6;;;3.7;;
17949;SDS011;9100;48.700;9.316;2023-05-27T03:01:03;7.6;;;3.7;;
17949;SDS011;9100;48.700;9.316;2023-05-27T03:02:03;7.6;;;3.7;;
17949;SDS011;9100;48.700;9.316;2023-05-27T03:03:03;7.6;;;3.7;;
17949;SDS011;9100;48.700;9.316;2023-05-27T03:04:03;7.6;;;3.7;;
17949;SDS011;9100;48.700;9.316;2023-05-27T03:04:56;17.6;;;3.6;;
17949;SDS011;9100;48.700;9.316;2023-05-27T03:05:03;17.6;;;3.6;;
17949;SDS011;9100;48.700;9.316;2023-05-27T03:06:03;17.6;;;3.6;;
17949;SDS011;9100;48.700;9.316;2023-05-27T03:07:03;17.6;;;3.6;;
17949;SDS011;9100;48.700;9.316;2023-05-27T03:08:03;17.6;;;3.6;;
17949;SDS011;9100;48.700;9.316;2023-05-27T03:09:03;17.6;;;3.6;;
17949;SDS011;9100;48.700;9.316;2023-05-27T03:09:56;6.8;;;3.7;;
17949;SDS011;9100;48.700;9.316;2023-05-27T03:10:04;6.8;;;3.7;;
17949;SDS011;9100;48.700;9.316;2023-05-27T03:11:03;6.8;;;3.7;;
17949;SDS011;9100;48.700;9.316;2023-05-27T03:12:03;6.8;;;3.7;;
17949;SDS011;9100;48.700;9.316;2023-05-27T03:13:03;6.8;;;3.7;;
17949;SDS011;9100;48.700;9.316;2023-05-27T03:14:03;6.8;;;3.7;;
17949;SDS011;9100;48.700;9.316;2023-05-27T03:14:56;10.9;;;3.8;;
17949;SDS011;9100;48.700;9.316;2023-05-27T03:15:03;10.9;;;3.8;;
17949;SDS011;9100;48.700;9.316;2023-05-27T03:16:03;10.9;;;3.8;;
17949;SDS011;9100;48.700;9.316;2023-05-27T03:17:03;10.9;;;3.8;;
17949;SDS011;9100;48.700;9.316;2023-05-27T03:18:03;10.9;;;3.8;;
17949;SDS011;9100;48.700;9.316;2023-05-27T03:19:03;10.9;;;3.8;;
17949;SDS011;9100;48.700;9.316;2023-05-27T03:19:56;8.5;;;3.8;;
17949;SDS011;9100;48.700;9.316;2023-05-27T03:20:03;8.5;;;3.8;;
17949;SDS011;9100;48.700;9.316;2023-05-27T03:21:03;8.5;;;3.8;;
17949;SDS011;9100;48.700;9.316;2023-05-27T03:22:03;8.5;;;3.8;;
17949;SDS011;9100;48.700;9.316;2023-05-27T03:23:03;8.5;;;3.8;;
17949;SDS011;9100;48.700;9.316;2023-05-27T03:24:03;8.5;;;3.8;;
17949;SDS011;9100;48.700;9.316;2023-05-27T03:24:56;8.2;;;3.7;;
17949;SDS011;9100;48.700;9.316;2023-05-27T03:25:03;8.2;;;3.7;;
17949;SDS011;9100;48.700;9.316;2023-05-27T03:26:03;8.2;;;3.7;;
17949;SDS011;9100;48.700;9.316;2023-05-27T03:27:03;8.2;;;3.7;;
17949;SDS011;9100;48.700;9.316;2023-05-27T03:28:03;8.2;;;3.7;;
17949;SDS011;9100;48.700;9.316;2023-05-27T03:29:03;8.2;;;3.7;;
17949;SDS011;9100;48.700;9.316;2023-05-27T03:29:56;6.5;;;3.7;;
17949;SDS011;9100;48.700;9.316;2023-05-27T03:30:04;6.5;;;3.7;;
17949;SDS011;9100;48.700;9.316;2023-05-27T03:31:03;6.5;;;3.7;;
17949;SDS011;9100;48.700;9.316;2023-05-27T03:32:03;6.5;;;3.7;;
17949;SDS011;9100;48.700;9.316;2023-05-27T03:33:03;6.5;;;3.7;;
17949;SDS011;9100;48.700;9.316;2023-05-27T03:34:03;6.5;;;3.7;;
17949;SDS011;9100;48.700;9.316;2023-05-27T03:34:56;7.8;;;3.1;;
17949;SDS011;9100;48.700;9.316;2023-05-27T03:35:03;7.8;;;3.1;;
17949;SDS011;9100;48.700;9.316;2023-05-27T03:36:03;7.8;;;3.1;;
17949;SDS011;9100;48.700;9.316;2023-05-27T03:37:03;7.8;;;3.1;;
17949;SDS011;9100;48.700;9.316;2023-05-27T03:38:03;7.8;;;3.1;;
17949;SDS011;9100;48.700;9.316;2023-05-27T03:39:03;7.8;;;3.1;;
17949;SDS011;9100;48.700;9.316;2023-05-27T03:39:56;10;;;3.9;;
17949;SDS011;9100;48.700;9.316;2023-05-27T03:40:03;10;;;3.9;;
17949;SDS011;9100;48.700;9.316;2023-05-27T03:41:03;10;;;3.9;;
17949;SDS011;9100;48.700;9.316;2023-05-27T03:42:03;10;;;3.9;;
17949;SDS011;9100;48.700;9.316;2023-05-27T03:43:03;10;;;3.9;;
17949;SDS011;9100;48.700;9.316;2023-05-27T03:44:03;10;;;3.9;;
17949;SDS011;9100;48.700;9.316;2023-05-27T03:44:56;8.2;;;4.1;;
17949;SDS011;9100;48.700;9.316;2023-05-27T03:45:03;8.2;;;4.1;;
17949;SDS011;9100;48.700;9.316;2023-05-27T03:46:03;8.2;;;4.1;;
17949;SDS011;9100;48.700;9.316;2023-05-27T03:47:03;8.2;;;4.1;;
17949;SDS011;9100;48.700;9.316;2023-05-27T03:48:03;8.2;;;4.1;;
17949;SDS011;9100;48.700;9.316;2023-05-27T03:49:03;8.2;;;4.1;;
17949;SDS011;9100;48.700;9.316;2023-05-27T03:49:56;9;;;4;;
17949;SDS011;9100;48.700;9.316;2023-05-27T03:50:03;9;;;4;;
17949;SDS011;9100;48.700;9.316;2023-05-27T03:51:03;9;;;4;;
17949;SDS011;9100;48.700;9.316;2023-05-27T03:52:03;9;;;4;;
17949;SDS011;9100;48.700;9.316;2023-05-27T03:53:03;9;;;4;;
17949;SDS011;9100;48.700;9.316;2023-05-27T03:54:03;9;;;4;;
17949;SDS011;9100;48.700;9.316;2023-05-27T03:54:56;12.7;;;3.6;;
17949;SDS011;9100;48.700;9.316;2023-05-27T03:55:04;12.7;;;3.6;;
17949;SDS011;9100;48.700;9.316;2023-05-27T03:56:03;12.7;;;3.6;;
17949;SDS011;9100;48.700;9.316;2023-05-27T03:57:03;12.7;;;3.6;;
17949;SDS011;9100;48.700;9.316;2023-05-27T03:58:03;12.7;;;3.6;;
17949;SDS011;9100;48.700;9.316;2023-05-27T03:59:03;12.7;;;3.6;;
17949;SDS011;9100;48.700;9.316;2023-05-27T03:59:56;6.8;;;3.6;;
17949;SDS011;9100;48.700;9.316;2023-05-27T04:00:04;6.8;;;3.6;;
17949;SDS011;9100;48.700;9.316;2023-05-27T04:01:03;6.8;;;3.6;;
17949;SDS011;9100;48.700;9.316;2023-05-27T04:02:03;6.8;;;3.6;;
17949;SDS011;9100;48.700;9.316;2023-05-27T04:03:03;6.8;;;3.6;;
17949;SDS011;9100;48.700;9.316;2023-05-27T04:04:03;6.8;;;3.6;;
17949;SDS011;9100;48.700;9.316;2023-05-27T04:04:56;6.9;;;3.5;;
17949;SDS011;9100;48.700;9.316;2023-05-27T04:05:03;6.9;;;3.5;;
17949;SDS011;9100;48.700;9.316;2023-05-27T04:06:03;6.9;;;3.5;;
17949;SDS011;9100;48.700;9.316;2023-05-27T04:07:03;6.9;;;3.5;;
17949;SDS011;9100;48.700;9.316;2023-05-27T04:08:03;6.9;;;3.5;;
17949;SDS011;9100;48.700;9.316;2023-05-27T04:09:03;6.9;;;3.5;;
17949;SDS011;9100;48.700;9.316;2023-05-27T04:09:56;5.6;;;3.4;;
17949;SDS011;9100;48.700;9.316;2023-05-27T04:10:03;5.6;;;3.4;;
17949;SDS011;9100;48.700;9.316;2023-05-27T04:11:03;5.6;;;3.4;;
17949;SDS011;9100;48.700;9.316;2023-05-27T04:12:03;5.6;;;3.4;;
17949;SDS011;9100;48.700;9.316;2023-05-27T04:13:03;5.6;;;3.4;;
17949;SDS011;9100;48.700;9.316;2023-05-27T04:14:03;5.6;;;3.4;;
17949;SDS011;9100;48.700;9.316;2023-05-27T04:14:56;9.4;;;4.1;;
17949;SDS011;9100;48.700;9.316;2023-05-27T04:15:03;9.4;;;4.1;;
17949;SDS011;9100;48.700;9.316;2023-05-27T04:16:03;9.4;;;4.1;;
17949;SDS011;9100;48.700;9.316;2023-05-27T04:17:03;9.4;;;4.1;;
17949;SDS011;9100;48.700;9.316;2023-05-27T04:18:03;9.4;;;4.1;;
17949;SDS011;9100;48.700;9.316;2023-05-27T04:19:03;9.4;;;4.1;;
17949;SDS011;9100;48.700;9.316;2023-05-27T04:19:56;8.8;;;3.5;;
17949;SDS011;9100;48.700;9.316;2023-05-27T04:20:04;8.8;;;3.5;;
17949;SDS011;9100;48.700;9.316;2023-05-27T04:21:03;8.8;;;3.5;;
17949;SDS011;9100;48.700;9.316;2023-05-27T04:22:03;8.8;;;3.5;;
17949;SDS011;9100;48.700;9.316;2023-05-27T04:23:03;8.8;;;3.5;;
17949;SDS011;9100;48.700;9.316;2023-05-27T04:24:03;8.8;;;3.5;;
17949;SDS011;9100;48.700;9.316;2023-05-27T04:24:56;7.7;;;4.2;;
17949;SDS011;9100;48.700;9.316;2023-05-27T04:25:03;7.7;;;4.2;;
17949;SDS011;9100;48.700;9.316;2023-05-27T04:26:03;7.7;;;4.2;;
17949;SDS011;9100;48.700;9.316;2023-05-27T04:27:03;7.7;;;4.2;;
17949;SDS011;9100;48.700;9.316;2023-05-27T04:28:03;7.7;;;4.2;;
17949;SDS011;9100;48.700;9.316;2023-05-27T04:29:03;7.7;;;4.2;;
17949;SDS011;9100;48.700;9.316;2023-05-27T04:29:56;5.2;;;3.5;;
17949;SDS011;9100;48.700;9.316;2023-05-27T04:30:03;5.2;;;3.5;;
17949;SDS011;9100;48.700;9.316;2023-05-27T04:31:03;5.2;;;3.5;;
17949;SDS011;9100;48.700;9.316;2023-05-27T04:32:03;5.2;;;3.5;;
17949;SDS011;9100;48.700;9.316;2023-05-27T04:33:03;5.2;;;3.5;;
17949;SDS011;9100;48.700;9.316;2023-05-27T04:34:03;5.2;;;3.5;;
17949;SDS011;9100;48.700;9.316;2023-05-27T04:34:56;5.6;;;3.3;;
17949;SDS011;9100;48.700;9.316;2023-05-27T04:35:04;5.6;;;3.3;;
17949;SDS011;9100;48.700;9.316;2023-05-27T04:36:03;5.6;;;3.3;;
17949;SDS011;9100;48.700;9.316;2023-05-27T04:37:03;5.6;;;3.3;;
17949;SDS011;9100;48.700;9.316;2023-05-27T04:38:03;5.6;;;3.3;;
17949;SDS011;9100;48.700;9.316;2023-05-27T04:39:03;5.6;;;3.3;;
17949;SDS011;9100;48.700;9.316;2023-05-27T04:39:56;7.8;;;3.8;;
17949;SDS011;9100;48.700;9.316;2023-05-27T04:40:03;7.8;;;3.8;;
17949;SDS011;9100;48.700;9.316;2023-05-27T04:41:03;7.8;;;3.8;;
17949;SDS011;9100;48.700;9.316;2023-05-27T04:42:03;7.8;;;3.8;;
17949;SDS011;9100;48.700;9.316;2023-05-27T04:43:03;7.8;;;3.8;;
17949;SDS011;9100;48.700;9.316;2023-05-27T04:44:03;7.8;;;3.8;;
17949;SDS011;9100;48.700;9.316;2023-05-27T04:44:56;7.9;;;4;;
17949;SDS011;9100;48.700;9.316;2023-05-27T04:45:03;7.9;;;4;;
17949;SDS011;9100;48.700;9.316;2023-05-27T04:46:03;7.9;;;4;;
17949;SDS011;9100;48.700;9.316;2023-05-27T04:47:03;7.9;;;4;;
17949;SDS011;9100;48.700;9.316;2023-05-27T04:48:03;7.9;;;4;;
17949;SDS011;9100;48.700;9.316;2023-05-27T04:49:03;7.9;;;4;;
17949;SDS011;9100;48.700;9.316;2023-05-27T04:49:56;10.2;;;3.2;;
17949;SDS011;9100;48.700;9.316;2023-05-27T04:50:03;10.2;;;3.2;;
17949;SDS011;9100;48.700;9.316;2023-05-27T04:51:03;10.2;;;3.2;;
17949;SDS011;9100;48.700;9.316;2023-05-27T04:52:03;10.2;;;3.2;;
17949;SDS011;9100;48.700;9.316;2023-05-27T04:53:03;10.2;;;3.2;;
17949;SDS011;9100;48.700;9.316;2023-05-27T04:54:03;10.2;;;3.2;;
17949;SDS011;9100;48.700;9.316;2023-05-27T04:54:56;7.2;;;3.5;;
17949;SDS011;9100;48.700;9.316;2023-05-27T04:55:03;7.2;;;3.5;;
17949;SDS011;9100;48.700;9.316;2023-05-27T04:56:03;7.2;;;3.5;;
17949;SDS011;9100;48.700;9.316;2023-05-27T04:57:03;7.2;;;3.5;;
17949;SDS011;9100;48.700;9.316;2023-05-27T04:58:03;7.2;;;3.5;;
17949;SDS011;9100;48.700;9.316;2023-05-27T04:59:03;7.2;;;3.5;;
17949;SDS011;9100;48.700;9.316;2023-05-27T04:59:56;6.3;;;4;;
17949;SDS011;9100;48.700;9.316;2023-05-27T05:00:03;6.3;;;4;;
17949;SDS011;9100;48.700;9.316;2023-05-27T05:01:03;6.3;;;4;;
17949;SDS011;9100;48.700;9.316;2023-05-27T05:02:03;6.3;;;4;;
17949;SDS011;9100;48.700;9.316;2023-05-27T05:03:03;6.3;;;4;;
17949;SDS011;9100;48.700;9.316;2023-05-27T05:04:03;6.3;;;4;;
17949;SDS011;9100;48.700;9.316;2023-05-27T05:04:56;8;;;4;;
17949;SDS011;9100;48.700;9.316;2023-05-27T05:05:04;8;;;4;;
17949;SDS011;9100;48.700;9.316;2023-05-27T05:06:03;8;;;4;;
17949;SDS011;9100;48.700;9.316;2023-05-27T05:07:03;8;;;4;;
17949;SDS011;9100;48.700;9.316;2023-05-27T05:08:03;8;;;4;;
17949;SDS011;9100;48.700;9.316;2023-05-27T05:09:03;8;;;4;;
17949;SDS011;9100;48.700;9.316;2023-05-27T05:09:56;5.9;;;3.6;;
17949;SDS011;9100;48.700;9.316;2023-05-27T05:10:03;5.9;;;3.6;;
17949;SDS011;9100;48.700;9.316;2023-05-27T05:11:03;5.9;;;3.6;;
17949;SDS011;9100;48.700;9.316;2023-05-27T05:12:03;5.9;;;3.6;;
17949;SDS011;9100;48.700;9.316;2023-05-27T05:13:03;5.9;;;3.6;;
17949;SDS011;9100;48.700;9.316;2023-05-27T05:14:03;5.9;;;3.6;;
17949;SDS011;9100;48.700;9.316;2023-05-27T05:14:56;9.4;;;4.1;;
17949;SDS011;9100;48.700;9.316;2023-05-27T05:15:04;9.4;;;4.1;;
17949;SDS011;9100;48.700;9.316;2023-05-27T05:16:03;9.4;;;4.1;;